sensor_id;sensor_type;location;lat;lon;timestamp;P1;durP1;ratioP1;P2;durP2;ratioP2
48100;SDS011;33878;47.442;18.916;2022-08-19T00:00:50;13.05;;;9.65;;
48100;SDS011;33878;47.442;18.916;2022-08-19T00:03:36;10.88;;;9.32;;
48100;SDS011;33878;47.442;18.916;2022-08-19T00:06:22;13.25;;;8.88;;
48100;SDS011;33878;47.442;18.916;2022-08-19T00:09:10;14.98;;;9.88;;
48100;SDS011;33878;47.442;18.916;2022-08-19T00:11:58;13.05;;;9.43;;
48100;SDS011;33878;47.442;18.916;2022-08-19T00:14:45;12.90;;;9.55;;
48100;SDS011;33878;47.442;18.916;2022-08-19T00:17:31;12.77;;;9.50;;
48100;SDS011;33878;47.442;18.916;2022-08-19T00:20:20;13.18;;;9.60;;
48100;SDS011;33878;47.442;18.916;2022-08-19T00:23:06;13.98;;;9.55;;
48100;SDS011;33878;47.442;18.916;2022-08-19T00:25:53;11.93;;;10.13;;
48100;SDS011;33878;47.442;18.916;2022-08-19T00:28:39;11.93;;;10.05;;
48100;SDS011;33878;47.442;18.916;2022-08-19T00:31:26;14.38;;;9.30;;
48100;SDS011;33878;47.442;18.916;2022-08-19T00:34:13;14.20;;;9.93;;
48100;SDS011;33878;47.442;18.916;2022-08-19T00:37:00;13.00;;;9.70;;
48100;SDS011;33878;47.442;18.916;2022-08-19T00:39:46;12.07;;;8.93;;
48100;SDS011;33878;47.442;18.916;2022-08-19T00:42:34;14.32;;;10.20;;
48100;SDS011;33878;47.442;18.916;2022-08-19T00:45:22;10.30;;;9.05;;
48100;SDS011;33878;47.442;18.916;2022-08-19T00:48:10;15.50;;;9.73;;
48100;SDS011;33878;47.442;18.916;2022-08-19T00:51:00;12.60;;;9.30;;
48100;SDS011;33878;47.442;18.916;2022-08-19T00:53:47;13.38;;;9.52;;
48100;SDS011;33878;47.442;18.916;2022-08-19T00:56:33;16.05;;;9.88;;
48100;SDS011;33878;47.442;18.916;2022-08-19T00:59:20;11.45;;;9.73;;
48100;SDS011;33878;47.442;18.916;2022-08-19T01:02:26;13.50;;;9.70;;
48100;SDS011;33878;47.442;18.916;2022-08-19T01:05:18;13.20;;;9.05;;
48100;SDS011;33878;47.442;18.916;2022-08-19T01:08:07;13.05;;;10.00;;
48100;SDS011;33878;47.442;18.916;2022-08-19T01:10:55;14.48;;;10.07;;
48100;SDS011;33878;47.442;18.916;2022-08-19T01:13:42;14.95;;;10.18;;
48100;SDS011;33878;47.442;18.916;2022-08-19T01:16:35;12.65;;;9.68;;
48100;SDS011;33878;47.442;18.916;2022-08-19T01:19:29;11.63;;;9.27;;
48100;SDS011;33878;47.442;18.916;2022-08-19T01:25:24;10.20;;;8.95;;
48100;SDS011;33878;47.442;18.916;2022-08-19T01:28:24;12.82;;;9.40;;
48100;SDS011;33878;47.442;18.916;2022-08-19T01:31:26;17.42;;;9.85;;
48100;SDS011;33878;47.442;18.916;2022-08-19T01:34:18;11.77;;;8.95;;
48100;SDS011;33878;47.442;18.916;2022-08-19T01:37:06;12.88;;;9.15;;
48100;SDS011;33878;47.442;18.916;2022-08-19T01:39:54;12.43;;;10.00;;
48100;SDS011;33878;47.442;18.916;2022-08-19T01:42:40;12.35;;;9.00;;
48100;SDS011;33878;47.442;18.916;2022-08-19T01:45:27;15.65;;;9.52;;
48100;SDS011;33878;47.442;18.916;2022-08-19T01:48:14;16.10;;;10.18;;
48100;SDS011;33878;47.442;18.916;2022-08-19T01:51:01;11.45;;;9.15;;
48100;SDS011;33878;47.442;18.916;2022-08-19T01:53:48;13.80;;;9.27;;
48100;SDS011;33878;47.442;18.916;2022-08-19T01:56:35;12.57;;;9.23;;
48100;SDS011;33878;47.442;18.916;2022-08-19T01:59:21;14.68;;;9.85;;
48100;SDS011;33878;47.442;18.916;2022-08-19T02:02:08;12.18;;;8.95;;
48100;SDS011;33878;47.442;18.916;2022-08-19T02:04:55;13.27;;;9.38;;
48100;SDS011;33878;47.442;18.916;2022-08-19T02:07:41;10.75;;;8.95;;
48100;SDS011;33878;47.442;18.916;2022-08-19T02:10:27;14.52;;;8.90;;
48100;SDS011;33878;47.442;18.916;2022-08-19T02:13:14;12.82;;;9.45;;
48100;SDS011;33878;47.442;18.916;2022-08-19T02:16:06;14.23;;;9.77;;
48100;SDS011;33878;47.442;18.916;2022-08-19T02:18:56;13.48;;;8.77;;
48100;SDS011;33878;47.442;18.916;2022-08-19T02:21:42;11.65;;;9.35;;
48100;SDS011;33878;47.442;18.916;2022-08-19T02:24:29;13.13;;;9.70;;
48100;SDS011;33878;47.442;18.916;2022-08-19T02:27:15;15.02;;;9.93;;
48100;SDS011;33878;47.442;18.916;2022-08-19T02:30:02;18.48;;;9.63;;
48100;SDS011;33878;47.442;18.916;2022-08-19T02:32:50;12.95;;;9.35;;
48100;SDS011;33878;47.442;18.916;2022-08-19T02:35:40;12.27;;;9.10;;
48100;SDS011;33878;47.442;18.916;2022-08-19T02:38:28;10.93;;;9.48;;
48100;SDS011;33878;47.442;18.916;2022-08-19T02:41:16;11.32;;;9.30;;
48100;SDS011;33878;47.442;18.916;2022-08-19T02:44:08;11.07;;;9.05;;
48100;SDS011;33878;47.442;18.916;2022-08-19T02:47:14;11.25;;;9.35;;
48100;SDS011;33878;47.442;18.916;2022-08-19T02:50:01;13.00;;;10.43;;
48100;SDS011;33878;47.442;18.916;2022-08-19T02:52:48;11.20;;;9.70;;
48100;SDS011;33878;47.442;18.916;2022-08-19T02:55:35;12.05;;;8.88;;
48100;SDS011;33878;47.442;18.916;2022-08-19T02:58:31;10.20;;;8.07;;
48100;SDS011;33878;47.442;18.916;2022-08-19T03:01:28;13.27;;;9.25;;
48100;SDS011;33878;47.442;18.916;2022-08-19T03:04:15;12.50;;;9.23;;
48100;SDS011;33878;47.442;18.916;2022-08-19T03:07:03;9.98;;;8.90;;
48100;SDS011;33878;47.442;18.916;2022-08-19T03:09:55;12.00;;;9.15;;
48100;SDS011;33878;47.442;18.916;2022-08-19T03:12:42;14.40;;;9.38;;
48100;SDS011;33878;47.442;18.916;2022-08-19T03:15:28;14.05;;;9.57;;
48100;SDS011;33878;47.442;18.916;2022-08-19T03:18:15;12.23;;;9.63;;
48100;SDS011;33878;47.442;18.916;2022-08-19T03:21:02;12.02;;;9.38;;
48100;SDS011;33878;47.442;18.916;2022-08-19T03:23:50;11.60;;;9.23;;
48100;SDS011;33878;47.442;18.916;2022-08-19T03:26:40;12.27;;;9.48;;
48100;SDS011;33878;47.442;18.916;2022-08-19T03:29:28;10.90;;;8.98;;
48100;SDS011;33878;47.442;18.916;2022-08-19T03:32:17;13.52;;;9.88;;
48100;SDS011;33878;47.442;18.916;2022-08-19T03:35:18;12.60;;;9.00;;
48100;SDS011;33878;47.442;18.916;2022-08-19T03:38:06;10.23;;;8.70;;
48100;SDS011;33878;47.442;18.916;2022-08-19T03:40:52;13.82;;;9.63;;
48100;SDS011;33878;47.442;18.916;2022-08-19T03:43:39;13.40;;;9.90;;
48100;SDS011;33878;47.442;18.916;2022-08-19T03:46:27;12.85;;;9.90;;
48100;SDS011;33878;47.442;18.916;2022-08-19T03:49:14;12.00;;;8.73;;
48100;SDS011;33878;47.442;18.916;2022-08-19T03:52:03;13.88;;;10.40;;
48100;SDS011;33878;47.442;18.916;2022-08-19T03:57:45;13.50;;;9.32;;
48100;SDS011;33878;47.442;18.916;2022-08-19T04:00:34;11.75;;;9.55;;
48100;SDS011;33878;47.442;18.916;2022-08-19T04:03:22;13.23;;;9.25;;
48100;SDS011;33878;47.442;18.916;2022-08-19T04:06:13;13.52;;;9.05;;
48100;SDS011;33878;47.442;18.916;2022-08-19T04:09:03;12.37;;;9.18;;
48100;SDS011;33878;47.442;18.916;2022-08-19T04:11:51;15.00;;;10.32;;
48100;SDS011;33878;47.442;18.916;2022-08-19T04:14:42;15.98;;;9.23;;
48100;SDS011;33878;47.442;18.916;2022-08-19T04:17:29;12.00;;;9.07;;
48100;SDS011;33878;47.442;18.916;2022-08-19T04:20:15;14.48;;;9.75;;
48100;SDS011;33878;47.442;18.916;2022-08-19T04:23:01;14.18;;;10.15;;
48100;SDS011;33878;47.442;18.916;2022-08-19T04:25:48;12.48;;;9.68;;
48100;SDS011;33878;47.442;18.916;2022-08-19T04:28:34;10.82;;;9.27;;
48100;SDS011;33878;47.442;18.916;2022-08-19T04:31:23;13.52;;;9.60;;
48100;SDS011;33878;47.442;18.916;2022-08-19T04:34:13;15.13;;;9.48;;
48100;SDS011;33878;47.442;18.916;2022-08-19T04:37:01;13.38;;;9.63;;
48100;SDS011;33878;47.442;18.916;2022-08-19T04:39:57;12.88;;;9.80;;
48100;SDS011;33878;47.442;18.916;2022-08-19T04:43:02;14.82;;;9.68;;
48100;SDS011;33878;47.442;18.916;2022-08-19T04:45:48;13.32;;;9.95;;
48100;SDS011;33878;47.442;18.916;2022-08-19T04:48:45;12.68;;;8.70;;
48100;SDS011;33878;47.442;18.916;2022-08-19T04:51:34;15.10;;;9.40;;
48100;SDS011;33878;47.442;18.916;2022-08-19T04:54:22;12.90;;;9.48;;
48100;SDS011;33878;47.442;18.916;2022-08-19T04:57:23;12.13;;;9.77;;
48100;SDS011;33878;47.442;18.916;2022-08-19T05:00:10;13.52;;;9.82;;
48100;SDS011;33878;47.442;18.916;2022-08-19T05:02:57;13.65;;;9.82;;
48100;SDS011;33878;47.442;18.916;2022-08-19T05:05:49;15.07;;;9.45;;
48100;SDS011;33878;47.442;18.916;2022-08-19T05:08:36;12.35;;;8.82;;
48100;SDS011;33878;47.442;18.916;2022-08-19T05:11:25;16.50;;;10.30;;
48100;SDS011;33878;47.442;18.916;2022-08-19T05:14:12;13.00;;;9.30;;
48100;SDS011;33878;47.442;18.916;2022-08-19T05:17:00;17.00;;;9.43;;
48100;SDS011;33878;47.442;18.916;2022-08-19T05:20:06;14.40;;;9.05;;
48100;SDS011;33878;47.442;18.916;2022-08-19T05:23:13;13.43;;;9.63;;
48100;SDS011;33878;47.442;18.916;2022-08-19T05:26:07;14.65;;;9.18;;
48100;SDS011;33878;47.442;18.916;2022-08-19T05:28:56;12.00;;;9.13;;
48100;SDS011;33878;47.442;18.916;2022-08-19T05:31:42;13.27;;;9.57;;
48100;SDS011;33878;47.442;18.916;2022-08-19T05:34:29;13.80;;;9.40;;
48100;SDS011;33878;47.442;18.916;2022-08-19T05:37:15;15.32;;;9.65;;
48100;SDS011;33878;47.442;18.916;2022-08-19T05:40:03;14.10;;;8.77;;
48100;SDS011;33878;47.442;18.916;2022-08-19T05:42:49;15.65;;;8.55;;
48100;SDS011;33878;47.442;18.916;2022-08-19T05:45:40;14.57;;;9.20;;
48100;SDS011;33878;47.442;18.916;2022-08-19T05:48:27;13.55;;;9.38;;
48100;SDS011;33878;47.442;18.916;2022-08-19T05:51:14;12.18;;;9.30;;
48100;SDS011;33878;47.442;18.916;2022-08-19T05:54:02;12.05;;;8.55;;
48100;SDS011;33878;47.442;18.916;2022-08-19T05:56:50;12.07;;;8.88;;
48100;SDS011;33878;47.442;18.916;2022-08-19T05:59:37;13.02;;;9.05;;
48100;SDS011;33878;47.442;18.916;2022-08-19T06:02:28;10.35;;;8.40;;
48100;SDS011;33878;47.442;18.916;2022-08-19T06:05:16;10.68;;;8.50;;
48100;SDS011;33878;47.442;18.916;2022-08-19T06:08:03;12.70;;;8.90;;
48100;SDS011;33878;47.442;18.916;2022-08-19T06:10:50;17.27;;;9.05;;
48100;SDS011;33878;47.442;18.916;2022-08-19T06:13:36;12.93;;;8.15;;
48100;SDS011;33878;47.442;18.916;2022-08-19T06:16:23;12.82;;;8.27;;
48100;SDS011;33878;47.442;18.916;2022-08-19T06:19:11;11.60;;;8.50;;
48100;SDS011;33878;47.442;18.916;2022-08-19T06:22:00;13.48;;;8.75;;
48100;SDS011;33878;47.442;18.916;2022-08-19T06:24:47;14.27;;;8.73;;
48100;SDS011;33878;47.442;18.916;2022-08-19T06:27:33;11.18;;;8.70;;
48100;SDS011;33878;47.442;18.916;2022-08-19T06:30:20;10.40;;;8.15;;
48100;SDS011;33878;47.442;18.916;2022-08-19T06:33:06;14.95;;;8.32;;
48100;SDS011;33878;47.442;18.916;2022-08-19T06:35:52;14.15;;;9.02;;
48100;SDS011;33878;47.442;18.916;2022-08-19T06:38:39;13.75;;;8.02;;
48100;SDS011;33878;47.442;18.916;2022-08-19T06:41:26;13.05;;;8.90;;
48100;SDS011;33878;47.442;18.916;2022-08-19T06:44:12;13.60;;;8.48;;
48100;SDS011;33878;47.442;18.916;2022-08-19T06:47:00;16.15;;;8.95;;
48100;SDS011;33878;47.442;18.916;2022-08-19T06:50:00;12.83;;;8.67;;
48100;SDS011;33878;47.442;18.916;2022-08-19T06:52:50;13.82;;;7.78;;
48100;SDS011;33878;47.442;18.916;2022-08-19T06:55:38;11.75;;;8.27;;
48100;SDS011;33878;47.442;18.916;2022-08-19T06:58:25;12.57;;;8.48;;
48100;SDS011;33878;47.442;18.916;2022-08-19T07:01:16;13.62;;;7.97;;
48100;SDS011;33878;47.442;18.916;2022-08-19T07:04:03;12.15;;;8.00;;
48100;SDS011;33878;47.442;18.916;2022-08-19T07:06:56;10.70;;;8.07;;
48100;SDS011;33878;47.442;18.916;2022-08-19T07:10:04;15.68;;;8.40;;
48100;SDS011;33878;47.442;18.916;2022-08-19T07:12:52;14.45;;;8.60;;
48100;SDS011;33878;47.442;18.916;2022-08-19T07:15:39;12.02;;;7.85;;
48100;SDS011;33878;47.442;18.916;2022-08-19T07:18:25;13.13;;;8.00;;
48100;SDS011;33878;47.442;18.916;2022-08-19T07:21:16;15.38;;;8.07;;
48100;SDS011;33878;47.442;18.916;2022-08-19T07:24:05;14.25;;;9.25;;
48100;SDS011;33878;47.442;18.916;2022-08-19T07:26:52;15.02;;;8.15;;
48100;SDS011;33878;47.442;18.916;2022-08-19T07:29:40;13.20;;;8.38;;
48100;SDS011;33878;47.442;18.916;2022-08-19T07:32:27;11.15;;;7.80;;
48100;SDS011;33878;47.442;18.916;2022-08-19T07:35:14;12.45;;;8.13;;
48100;SDS011;33878;47.442;18.916;2022-08-19T07:38:00;11.63;;;8.32;;
48100;SDS011;33878;47.442;18.916;2022-08-19T07:40:49;15.65;;;8.80;;
48100;SDS011;33878;47.442;18.916;2022-08-19T07:43:37;12.48;;;8.00;;
48100;SDS011;33878;47.442;18.916;2022-08-19T07:46:24;13.15;;;7.85;;
48100;SDS011;33878;47.442;18.916;2022-08-19T07:49:11;11.45;;;8.23;;
48100;SDS011;33878;47.442;18.916;2022-08-19T07:52:06;13.82;;;8.15;;
48100;SDS011;33878;47.442;18.916;2022-08-19T07:54:53;12.30;;;7.57;;
48100;SDS011;33878;47.442;18.916;2022-08-19T07:57:40;11.05;;;8.23;;
48100;SDS011;33878;47.442;18.916;2022-08-19T08:00:26;14.43;;;8.35;;
48100;SDS011;33878;47.442;18.916;2022-08-19T08:03:13;13.27;;;7.40;;
48100;SDS011;33878;47.442;18.916;2022-08-19T08:06:01;14.43;;;8.13;;
48100;SDS011;33878;47.442;18.916;2022-08-19T08:09:06;13.77;;;8.23;;
48100;SDS011;33878;47.442;18.916;2022-08-19T08:15:19;11.15;;;7.60;;
48100;SDS011;33878;47.442;18.916;2022-08-19T08:18:10;10.68;;;7.20;;
48100;SDS011;33878;47.442;18.916;2022-08-19T08:20:59;12.80;;;7.12;;
48100;SDS011;33878;47.442;18.916;2022-08-19T08:23:46;10.63;;;7.18;;
48100;SDS011;33878;47.442;18.916;2022-08-19T08:26:32;9.65;;;6.75;;
48100;SDS011;33878;47.442;18.916;2022-08-19T08:29:19;12.57;;;6.90;;
48100;SDS011;33878;47.442;18.916;2022-08-19T08:32:06;10.45;;;6.80;;
48100;SDS011;33878;47.442;18.916;2022-08-19T08:34:59;10.10;;;7.60;;
48100;SDS011;33878;47.442;18.916;2022-08-19T08:37:46;12.05;;;7.07;;
48100;SDS011;33878;47.442;18.916;2022-08-19T08:43:35;14.18;;;7.80;;
48100;SDS011;33878;47.442;18.916;2022-08-19T08:52:25;10.23;;;6.70;;
48100;SDS011;33878;47.442;18.916;2022-08-19T08:55:19;8.70;;;7.05;;
48100;SDS011;33878;47.442;18.916;2022-08-19T08:58:16;12.05;;;7.32;;
48100;SDS011;33878;47.442;18.916;2022-08-19T09:01:08;9.95;;;7.05;;
48100;SDS011;33878;47.442;18.916;2022-08-19T09:03:56;9.63;;;7.05;;
48100;SDS011;33878;47.442;18.916;2022-08-19T09:09:41;10.50;;;6.80;;
48100;SDS011;33878;47.442;18.916;2022-08-19T09:15:47;12.65;;;6.62;;
48100;SDS011;33878;47.442;18.916;2022-08-19T09:18:50;10.18;;;7.03;;
48100;SDS011;33878;47.442;18.916;2022-08-19T09:21:39;10.45;;;7.28;;
48100;SDS011;33878;47.442;18.916;2022-08-19T09:24:26;9.35;;;7.25;;
48100;SDS011;33878;47.442;18.916;2022-08-19T09:27:16;10.07;;;7.25;;
48100;SDS011;33878;47.442;18.916;2022-08-19T09:30:04;10.55;;;7.22;;
48100;SDS011;33878;47.442;18.916;2022-08-19T09:32:52;11.55;;;7.35;;
48100;SDS011;33878;47.442;18.916;2022-08-19T09:35:39;9.25;;;6.68;;
48100;SDS011;33878;47.442;18.916;2022-08-19T09:38:38;8.75;;;6.43;;
48100;SDS011;33878;47.442;18.916;2022-08-19T09:41:29;9.57;;;6.62;;
48100;SDS011;33878;47.442;18.916;2022-08-19T09:44:15;15.98;;;7.05;;
48100;SDS011;33878;47.442;18.916;2022-08-19T09:47:02;10.70;;;7.30;;
48100;SDS011;33878;47.442;18.916;2022-08-19T09:49:50;11.10;;;6.95;;
48100;SDS011;33878;47.442;18.916;2022-08-19T09:52:36;9.90;;;7.32;;
48100;SDS011;33878;47.442;18.916;2022-08-19T09:55:23;7.68;;;6.65;;
48100;SDS011;33878;47.442;18.916;2022-08-19T09:58:17;11.52;;;7.55;;
48100;SDS011;33878;47.442;18.916;2022-08-19T10:01:11;13.00;;;7.28;;
48100;SDS011;33878;47.442;18.916;2022-08-19T10:04:06;9.43;;;7.68;;
48100;SDS011;33878;47.442;18.916;2022-08-19T10:07:05;12.00;;;7.20;;
48100;SDS011;33878;47.442;18.916;2022-08-19T10:09:51;12.48;;;7.37;;
48100;SDS011;33878;47.442;18.916;2022-08-19T10:12:38;14.57;;;7.50;;
48100;SDS011;33878;47.442;18.916;2022-08-19T10:15:24;10.70;;;7.28;;
48100;SDS011;33878;47.442;18.916;2022-08-19T10:18:14;9.30;;;6.93;;
48100;SDS011;33878;47.442;18.916;2022-08-19T10:21:05;9.73;;;6.60;;
48100;SDS011;33878;47.442;18.916;2022-08-19T10:23:58;11.82;;;7.10;;
48100;SDS011;33878;47.442;18.916;2022-08-19T10:26:46;9.40;;;6.87;;
48100;SDS011;33878;47.442;18.916;2022-08-19T10:29:43;8.93;;;6.70;;
48100;SDS011;33878;47.442;18.916;2022-08-19T10:32:31;9.00;;;6.95;;
48100;SDS011;33878;47.442;18.916;2022-08-19T10:35:19;8.48;;;6.47;;
48100;SDS011;33878;47.442;18.916;2022-08-19T10:38:07;11.27;;;7.10;;
48100;SDS011;33878;47.442;18.916;2022-08-19T10:40:55;10.77;;;7.45;;
48100;SDS011;33878;47.442;18.916;2022-08-19T10:43:42;10.18;;;7.28;;
48100;SDS011;33878;47.442;18.916;2022-08-19T10:46:28;11.15;;;6.80;;
48100;SDS011;33878;47.442;18.916;2022-08-19T10:49:18;10.05;;;6.78;;
48100;SDS011;33878;47.442;18.916;2022-08-19T10:52:05;12.90;;;7.07;;
48100;SDS011;33878;47.442;18.916;2022-08-19T10:55:19;13.80;;;8.13;;
48100;SDS011;33878;47.442;18.916;2022-08-19T10:58:25;10.02;;;7.80;;
48100;SDS011;33878;47.442;18.916;2022-08-19T11:01:12;13.45;;;6.85;;
48100;SDS011;33878;47.442;18.916;2022-08-19T11:03:59;7.82;;;6.60;;
48100;SDS011;33878;47.442;18.916;2022-08-19T11:06:46;14.80;;;7.97;;
48100;SDS011;33878;47.442;18.916;2022-08-19T11:09:38;13.23;;;8.07;;
48100;SDS011;33878;47.442;18.916;2022-08-19T11:12:26;11.88;;;10.68;;
48100;SDS011;33878;47.442;18.916;2022-08-19T11:15:13;12.75;;;9.38;;
48100;SDS011;33878;47.442;18.916;2022-08-19T11:18:00;13.77;;;9.55;;
48100;SDS011;33878;47.442;18.916;2022-08-19T11:20:46;11.63;;;9.43;;
48100;SDS011;33878;47.442;18.916;2022-08-19T11:23:33;13.27;;;11.50;;
48100;SDS011;33878;47.442;18.916;2022-08-19T11:26:20;17.25;;;15.45;;
48100;SDS011;33878;47.442;18.916;2022-08-19T11:29:08;23.85;;;21.33;;
48100;SDS011;33878;47.442;18.916;2022-08-19T11:31:57;23.33;;;19.65;;
48100;SDS011;33878;47.442;18.916;2022-08-19T11:34:43;24.42;;;21.85;;
48100;SDS011;33878;47.442;18.916;2022-08-19T11:37:29;22.08;;;19.30;;
48100;SDS011;33878;47.442;18.916;2022-08-19T11:40:16;22.62;;;16.58;;
48100;SDS011;33878;47.442;18.916;2022-08-19T11:43:02;17.17;;;15.23;;
48100;SDS011;33878;47.442;18.916;2022-08-19T11:45:49;16.95;;;15.00;;
48100;SDS011;33878;47.442;18.916;2022-08-19T11:48:36;16.25;;;14.55;;
48100;SDS011;33878;47.442;18.916;2022-08-19T11:51:23;18.58;;;14.93;;
48100;SDS011;33878;47.442;18.916;2022-08-19T11:54:13;19.87;;;17.73;;
48100;SDS011;33878;47.442;18.916;2022-08-19T11:57:02;19.42;;;17.42;;
48100;SDS011;33878;47.442;18.916;2022-08-19T11:59:52;20.85;;;18.10;;
48100;SDS011;33878;47.442;18.916;2022-08-19T12:02:39;20.37;;;18.40;;
48100;SDS011;33878;47.442;18.916;2022-08-19T12:05:25;22.83;;;19.92;;
48100;SDS011;33878;47.442;18.916;2022-08-19T12:08:12;21.85;;;19.60;;
48100;SDS011;33878;47.442;18.916;2022-08-19T12:11:01;21.27;;;19.20;;
48100;SDS011;33878;47.442;18.916;2022-08-19T12:13:48;20.40;;;16.73;;
48100;SDS011;33878;47.442;18.916;2022-08-19T12:16:34;17.92;;;15.35;;
48100;SDS011;33878;47.442;18.916;2022-08-19T12:19:25;21.20;;;15.70;;
48100;SDS011;33878;47.442;18.916;2022-08-19T12:22:11;18.08;;;15.70;;
48100;SDS011;33878;47.442;18.916;2022-08-19T12:24:58;24.55;;;17.02;;
48100;SDS011;33878;47.442;18.916;2022-08-19T12:27:44;20.92;;;15.50;;
48100;SDS011;33878;47.442;18.916;2022-08-19T12:30:42;17.60;;;14.00;;
48100;SDS011;33878;47.442;18.916;2022-08-19T12:33:28;22.30;;;14.00;;
48100;SDS011;33878;47.442;18.916;2022-08-19T12:36:15;29.73;;;15.40;;
48100;SDS011;33878;47.442;18.916;2022-08-19T12:39:02;19.02;;;11.85;;
48100;SDS011;33878;47.442;18.916;2022-08-19T12:41:49;13.00;;;8.43;;
48100;SDS011;33878;47.442;18.916;2022-08-19T12:47:27;11.43;;;7.18;;
48100;SDS011;33878;47.442;18.916;2022-08-19T12:50:14;11.35;;;6.30;;
48100;SDS011;33878;47.442;18.916;2022-08-19T12:53:00;12.50;;;7.15;;
48100;SDS011;33878;47.442;18.916;2022-08-19T12:55:46;12.23;;;6.20;;
48100;SDS011;33878;47.442;18.916;2022-08-19T12:58:32;14.63;;;5.97;;
48100;SDS011;33878;47.442;18.916;2022-08-19T13:01:20;11.12;;;5.68;;
48100;SDS011;33878;47.442;18.916;2022-08-19T13:04:07;11.80;;;5.75;;
48100;SDS011;33878;47.442;18.916;2022-08-19T13:06:54;10.65;;;6.00;;
48100;SDS011;33878;47.442;18.916;2022-08-19T13:09:40;10.88;;;6.05;;
48100;SDS011;33878;47.442;18.916;2022-08-19T13:12:28;10.80;;;5.62;;
48100;SDS011;33878;47.442;18.916;2022-08-19T13:15:15;9.88;;;5.45;;
48100;SDS011;33878;47.442;18.916;2022-08-19T13:18:09;10.85;;;5.80;;
48100;SDS011;33878;47.442;18.916;2022-08-19T13:20:56;12.93;;;6.32;;
48100;SDS011;33878;47.442;18.916;2022-08-19T13:23:42;12.45;;;5.28;;
48100;SDS011;33878;47.442;18.916;2022-08-19T13:26:29;15.57;;;5.97;;
48100;SDS011;33878;47.442;18.916;2022-08-19T13:29:15;22.60;;;6.07;;
48100;SDS011;33878;47.442;18.916;2022-08-19T13:32:20;18.37;;;6.12;;
48100;SDS011;33878;47.442;18.916;2022-08-19T13:35:27;13.27;;;5.97;;
48100;SDS011;33878;47.442;18.916;2022-08-19T13:38:14;20.00;;;6.35;;
48100;SDS011;33878;47.442;18.916;2022-08-19T13:41:04;22.62;;;6.47;;
48100;SDS011;33878;47.442;18.916;2022-08-19T13:43:56;25.05;;;6.25;;
48100;SDS011;33878;47.442;18.916;2022-08-19T13:46:43;14.27;;;5.32;;
48100;SDS011;33878;47.442;18.916;2022-08-19T13:49:30;15.90;;;5.70;;
48100;SDS011;33878;47.442;18.916;2022-08-19T13:52:17;15.98;;;5.30;;
48100;SDS011;33878;47.442;18.916;2022-08-19T13:55:03;17.95;;;5.97;;
48100;SDS011;33878;47.442;18.916;2022-08-19T13:57:51;12.00;;;4.90;;
48100;SDS011;33878;47.442;18.916;2022-08-19T14:00:40;16.45;;;5.20;;
48100;SDS011;33878;47.442;18.916;2022-08-19T14:03:28;15.88;;;5.60;;
48100;SDS011;33878;47.442;18.916;2022-08-19T14:06:14;16.67;;;4.87;;
48100;SDS011;33878;47.442;18.916;2022-08-19T14:09:00;13.30;;;5.12;;
48100;SDS011;33878;47.442;18.916;2022-08-19T14:11:48;14.30;;;4.72;;
48100;SDS011;33878;47.442;18.916;2022-08-19T14:14:36;15.02;;;5.68;;
48100;SDS011;33878;47.442;18.916;2022-08-19T14:17:24;14.40;;;5.78;;
48100;SDS011;33878;47.442;18.916;2022-08-19T14:20:11;16.12;;;4.68;;
48100;SDS011;33878;47.442;18.916;2022-08-19T14:23:03;16.73;;;5.10;;
48100;SDS011;33878;47.442;18.916;2022-08-19T14:25:51;15.82;;;4.72;;
48100;SDS011;33878;47.442;18.916;2022-08-19T14:28:38;13.18;;;4.00;;
48100;SDS011;33878;47.442;18.916;2022-08-19T14:31:26;18.85;;;4.22;;
48100;SDS011;33878;47.442;18.916;2022-08-19T14:34:15;19.83;;;3.40;;
48100;SDS011;33878;47.442;18.916;2022-08-19T14:37:02;15.30;;;2.95;;
48100;SDS011;33878;47.442;18.916;2022-08-19T14:39:49;19.27;;;2.92;;
48100;SDS011;33878;47.442;18.916;2022-08-19T14:42:35;14.95;;;3.10;;
48100;SDS011;33878;47.442;18.916;2022-08-19T14:45:22;18.30;;;3.65;;
48100;SDS011;33878;47.442;18.916;2022-08-19T14:48:08;10.25;;;2.62;;
48100;SDS011;33878;47.442;18.916;2022-08-19T14:51:05;15.50;;;3.62;;
48100;SDS011;33878;47.442;18.916;2022-08-19T14:53:52;12.48;;;3.05;;
48100;SDS011;33878;47.442;18.916;2022-08-19T14:56:39;12.02;;;3.22;;
48100;SDS011;33878;47.442;18.916;2022-08-19T14:59:26;12.15;;;3.00;;
48100;SDS011;33878;47.442;18.916;2022-08-19T15:02:12;12.88;;;3.03;;
48100;SDS011;33878;47.442;18.916;2022-08-19T15:05:19;13.20;;;3.40;;
48100;SDS011;33878;47.442;18.916;2022-08-19T15:08:06;17.83;;;3.33;;
48100;SDS011;33878;47.442;18.916;2022-08-19T15:10:52;14.65;;;3.03;;
48100;SDS011;33878;47.442;18.916;2022-08-19T15:13:39;12.30;;;2.92;;
48100;SDS011;33878;47.442;18.916;2022-08-19T15:16:26;15.05;;;3.12;;
48100;SDS011;33878;47.442;18.916;2022-08-19T15:19:13;11.68;;;3.15;;
48100;SDS011;33878;47.442;18.916;2022-08-19T15:21:59;15.57;;;3.25;;
48100;SDS011;33878;47.442;18.916;2022-08-19T15:24:45;13.98;;;3.67;;
48100;SDS011;33878;47.442;18.916;2022-08-19T15:27:33;15.27;;;2.97;;
48100;SDS011;33878;47.442;18.916;2022-08-19T15:30:22;13.45;;;2.97;;
48100;SDS011;33878;47.442;18.916;2022-08-19T15:33:10;11.95;;;3.33;;
48100;SDS011;33878;47.442;18.916;2022-08-19T15:35:59;14.63;;;3.70;;
48100;SDS011;33878;47.442;18.916;2022-08-19T15:38:46;15.00;;;3.42;;
48100;SDS011;33878;47.442;18.916;2022-08-19T15:41:33;13.00;;;3.40;;
48100;SDS011;33878;47.442;18.916;2022-08-19T15:44:22;16.60;;;3.67;;
48100;SDS011;33878;47.442;18.916;2022-08-19T15:47:08;15.75;;;3.40;;
48100;SDS011;33878;47.442;18.916;2022-08-19T15:49:54;10.50;;;2.90;;
48100;SDS011;33878;47.442;18.916;2022-08-19T15:52:46;13.93;;;3.25;;
48100;SDS011;33878;47.442;18.916;2022-08-19T15:55:36;14.87;;;3.57;;
48100;SDS011;33878;47.442;18.916;2022-08-19T15:58:27;14.27;;;3.50;;
48100;SDS011;33878;47.442;18.916;2022-08-19T16:01:32;14.63;;;4.50;;
48100;SDS011;33878;47.442;18.916;2022-08-19T16:04:37;14.75;;;3.90;;
48100;SDS011;33878;47.442;18.916;2022-08-19T16:07:42;11.57;;;3.53;;
48100;SDS011;33878;47.442;18.916;2022-08-19T16:10:28;18.77;;;3.87;;
48100;SDS011;33878;47.442;18.916;2022-08-19T16:13:15;16.42;;;4.65;;
48100;SDS011;33878;47.442;18.916;2022-08-19T16:16:01;12.88;;;3.97;;
48100;SDS011;33878;47.442;18.916;2022-08-19T16:18:48;12.73;;;3.97;;
48100;SDS011;33878;47.442;18.916;2022-08-19T16:21:38;13.80;;;4.37;;
48100;SDS011;33878;47.442;18.916;2022-08-19T16:24:26;12.75;;;4.03;;
48100;SDS011;33878;47.442;18.916;2022-08-19T16:27:13;12.65;;;3.92;;
48100;SDS011;33878;47.442;18.916;2022-08-19T16:30:01;13.27;;;4.62;;
48100;SDS011;33878;47.442;18.916;2022-08-19T16:32:48;16.20;;;4.37;;
48100;SDS011;33878;47.442;18.916;2022-08-19T16:35:34;15.15;;;4.53;;
48100;SDS011;33878;47.442;18.916;2022-08-19T16:38:21;20.37;;;4.00;;
48100;SDS011;33878;47.442;18.916;2022-08-19T16:41:08;14.65;;;3.65;;
48100;SDS011;33878;47.442;18.916;2022-08-19T16:43:54;14.80;;;3.95;;
48100;SDS011;33878;47.442;18.916;2022-08-19T16:46:41;16.55;;;4.28;;
48100;SDS011;33878;47.442;18.916;2022-08-19T16:49:27;20.58;;;4.80;;
48100;SDS011;33878;47.442;18.916;2022-08-19T16:52:34;15.57;;;5.32;;
48100;SDS011;33878;47.442;18.916;2022-08-19T16:55:22;14.05;;;4.32;;